Ellison Onizuka Kona Intl At Keahole Information

FAA: KOA - ICAO: PHKO

Ellison Onizuka Kona Intl At Keahole (Airport) Location

State Hawaii
County Hawaii
City Kailua/Kona
Ellison Onizuka Kona Intl At Keahole (Airport) is 6 miles northwest of Kailua/Kona, HI.
Latitude 19-44-19.5570N
Longitude 156-02-44.2730W
Elevation 47ft

Ellison Onizuka Kona Intl At Keahole METARs

METAR PHKO 261053Z AUTO 12008KT 10SM OVC060 24/18 A2995 RMK AO2 SLP141 T02440178 TSNO
Altimeter 29.95"
Temperature 24.4°C (75.9°F)
Wind 120° at 8KT
Clouds overcast at 6,000ft
Visibility 10.0mi
Time observed: 2022-05-26T10:53:00Z

Ellison Onizuka Kona Intl At Keahole (Airport) Details

Status Operational
Activation January 1971
Ownership Public
Usage Public
Chart HAWAIIAN ISLANDS
ATC on-site Yes
Beacon schedule sunset-sunrise
Beacon color clear green

Ellison Onizuka Kona Intl At Keahole (Airport) Contacts

Owner HAWAII ST ARPTS DIV
Owner address HONOLULU INTL ARPT, HONOLULU, HI 96819
Owner phone 808-838-8600
Manager CHRISTOPHER S. TENORIO
Manager address PO BOX 501055, SAIPAN, MP 96950-1055
Manager phone (670) 483-2447

Ellison Onizuka Kona Intl At Keahole Radio Frequencies

Ellison Onizuka Kona Intl At Keahole (Airport) Radio Frequencies

UNICOM N/A
Common traffic advisory frequency (CTAF) 120.3